Time Latitude Longitude Accuracy (66% radius in meters) Altitude (meters) Speed (km/hour) Bearing (degrees) Battery (%) GPS flag
07:29:16 57.204775 60.121381 24 320.21641337238 2.0127696990967 311.01327514648 89 1 delete
07:29:13 57.204762 60.121300 24 320.21604787735 2.1240921020508 297.65850830078 89 1 delete
07:29:09 57.204750 60.121467 24 320.19551145858 0 0 89 1 delete
07:29:07 57.204652 60.121531 16 320.14942827303 1.448605298996 298.58728027344 89 1 delete
07:29:05 57.204569 60.121635 16 320.14017173745 0.26370471715927 295.70971679688 89 1 delete
07:28:55 57.204523 60.121682 24 320.09623466013 0.44685459136963 333.80819702148 89 1 delete
07:28:45 57.204529 60.121654 32 320.15491792579 0.55448222160339 294.43090820312 89 1 delete
07:28:10 57.204523 60.121719 12 320.65545304325 0.17546804249287 35.013389587402 89 1 delete
07:28:00 57.204578 60.121668 16 320.7075486071 0.43033075332642 68.514053344727 89 1 delete
07:27:52 57.204686 60.121727 24 320.6966876639 0 0 89 1 delete
07:27:46 57.204751 60.121758 12 320.73854506693 0.78008610010147 87.253952026367 89 1 delete
07:27:40 57.204809 60.121725 16 320.75024792826 1.0847309827805 32.507972717285 89 1 delete
07:27:29 57.204709 60.121749 16 320.78758055435 0.34020927548409 113.36873626709 89 1 delete
07:27:18 57.204742 60.121713 16 320.83188584575 0.24647404253483 80.58911895752 89 1 delete
07:27:05 57.204738 60.121710 16 320.90378727027 0.34020730853081 38.607051849365 89 1 delete
07:27:01 57.204764 60.121641 16 320.93486904341 0.13427263498306 354.8684387207 89 1 delete
07:26:58 57.204825 60.121677 16 320.95224182597 0.042930047959089 354.8684387207 89 1 delete
07:26:47 57.204818 60.121616 24 321.08907051267 0.66141802072525 350.89724731445 89 1 delete
07:26:41 57.204841 60.121750 16 321.27315562903 0.53843158483505 331.06564331055 89 1 delete
07:26:37 57.204817 60.121779 16 321.32728753517 0 0 89 1 delete
07:26:26 57.204817 60.121562 12 321.93156065969 0.42096254229546 307.89144897461 89 1 delete
07:26:16 57.204801 60.121630 12 322.19260715931 0.19455525279045 318.67559814453 89 1 delete
07:26:05 57.204762 60.121701 8 322.36797733396 0.020917899906635 303.12823486328 89 1 delete
07:26:02 57.204769 60.121646 12 322.39511062479 0.36262771487236 289.06680297852 89 1 delete
07:25:59 57.204644 60.121633 12 322.40994408319 0.48493793606758 307.65493774414 89 1 delete
07:25:55 57.204592 60.121618 8 322.44312125455 0.4522040784359 301.03482055664 89 1 delete
07:25:46 57.204551 60.121566 8 322.46045611005 0.30165350437164 297.86392211914 89 1 delete
07:25:44 57.204595 60.121602 8 322.45648341829 0.4529502093792 297.86392211914 89 1 delete
07:25:40 57.204649 60.121644 8 322.43391945036 0.72709131240845 284.0846862793 89 1 delete
07:25:34 57.204700 60.121636 12 322.427065298 0.0053654727526009 279.57214355469 89 1 delete
07:25:30 57.204745 60.121603 12 322.43142237837 0.40070873498917 279.57214355469 89 1 delete
07:25:25 57.204844 60.121682 16 322.43375938831 0.15322761237621 228.8528137207 89 1 delete
07:25:23 57.204830 60.121605 24 322.43345223346 0.34223246574402 228.8528137207 89 1 delete
07:25:01 57.204918 60.121484 12 321.91006908017 0.76334601640701 284.30453491211 89 1 delete
07:24:53 57.204878 60.121509 16 321.80682528063 0.63769268989563 229.92454528809 89 1 delete
07:24:51 57.204842 60.121548 16 321.77814830215 0.62558275461197 241.5686340332 89 1 delete
07:24:41 57.204826 60.121690 12 321.61611779591 0.32476317882538 144.00634765625 89 1 delete
07:24:31 57.204835 60.121586 3 321.44853721865 0.77600038051605 108.89437103271 89 1 delete
07:24:24 57.204830 60.121492 4 321.32998360613 0.043824717402458 40.665168762207 89 1 delete
07:24:20 57.204827 60.121474 3 321.28400596039 0.54747980833054 41.920448303223 89 1 delete
07:24:10 57.204817 60.121440 4 321.19158755866 0.026547558605671 58.397941589355 89 1 delete
07:23:59 57.204811 60.121437 3 321.17875211421 0.59805333614349 58.397941589355 89 1 delete
07:23:53 57.204779 60.121355 3 321.13198260239 2.6303391456604 56.039306640625 89 1 delete
07:23:49 57.204727 60.121210 3 321.09778836683 2.7354953289032 55.051528930664 89 1 delete
07:23:45 57.204671 60.121049 3 321.06413521975 2.7142825126648 48.638767242432 89 1 delete
07:23:41 57.204616 60.120882 3 321.0335648141 2.6963367462158 48.985324859619 89 1 delete
07:23:39 57.204583 60.120804 3 321.01734445839 2.7163259983063 45.618549346924 89 1 delete
07:23:37 57.204556 60.120733 3 321.00027458245 2.773964881897 45.62907409668 89 1 delete
07:23:33 57.204519 60.120580 3 320.9627657876 2.8383979797363 52.316600799561 89 1 delete
07:23:29 57.204486 60.120424 4 320.9198987151 2.9244668483734 78.721817016602 89 1 delete